Time;durP1;ratioP1;P1;durP2;ratioP2;P2;SDS_P1;SDS_P2;PMS_P1;PMS_P2;Temp;Humidity;BMP_temperature;BMP_pressure;BME280_temperature;BME280_humidity;BME280_pressure;Samples;Min_cycle;Max_cycle;Signal;HPM_P1;HPM_P2
2022/11/19 00:01:05;;;;;;;8.73;1.63;;;;;;;;;;6200807;23;20032;-78
2022/11/19 00:03:33;;;;;;;8.75;2.03;;;;;;;;;;6204363;23;20433;-73
2022/11/19 00:06:02;;;;;;;8.75;2.15;;;;;;;;;;6204821;23;20000;-74
2022/11/19 00:08:28;;;;;;;7.60;1.58;;;;;;;;;;6208839;23;20514;-76
2022/11/19 00:10:54;;;;;;;9.98;1.80;;;;;;;;;;6209369;23;20008;-77
2022/11/19 00:13:20;;;;;;;6.53;1.40;;;;;;;;;;6207431;23;20008;-74
2022/11/19 00:15:46;;;;;;;4.45;1.65;;;;;;;;;;6208955;23;20005;-73
2022/11/19 00:18:12;;;;;;;5.53;1.70;;;;;;;;;;6209404;23;20008;-75
2022/11/19 00:20:39;;;;;;;6.07;1.70;;;;;;;;;;6207049;23;20009;-77
2022/11/19 00:23:05;;;;;;;5.40;1.67;;;;;;;;;;6208918;23;20021;-76
2022/11/19 00:25:31;;;;;;;5.30;1.70;;;;;;;;;;6208229;23;20007;-72
2022/11/19 00:27:58;;;;;;;7.88;2.03;;;;;;;;;;6207258;23;20015;-73
2022/11/19 00:30:24;;;;;;;7.13;1.75;;;;;;;;;;6208342;23;20521;-73
2022/11/19 00:32:50;;;;;;;10.80;2.42;;;;;;;;;;6208943;23;20429;-73
2022/11/19 00:35:16;;;;;;;8.18;1.67;;;;;;;;;;6208478;23;20016;-72
2022/11/19 00:37:43;;;;;;;5.45;1.58;;;;;;;;;;6206727;23;20222;-73
2022/11/19 00:40:10;;;;;;;3.63;1.30;;;;;;;;;;6208970;23;19996;-73
2022/11/19 00:42:38;;;;;;;8.45;1.45;;;;;;;;;;6208921;23;20102;-73
2022/11/19 00:45:05;;;;;;;8.88;2.22;;;;;;;;;;6209256;23;20019;-73
2022/11/19 00:47:31;;;;;;;6.88;1.50;;;;;;;;;;6209388;23;20017;-73
2022/11/19 00:49:57;;;;;;;5.28;1.10;;;;;;;;;;6206455;23;19996;-73
2022/11/19 00:52:23;;;;;;;7.90;1.80;;;;;;;;;;6208584;23;20012;-73
2022/11/19 00:54:49;;;;;;;5.25;1.50;;;;;;;;;;6208695;23;20062;-73
2022/11/19 00:57:15;;;;;;;6.75;1.70;;;;;;;;;;6208820;23;20083;-73
2022/11/19 00:59:41;;;;;;;3.28;1.33;;;;;;;;;;6206352;23;20011;-73
2022/11/19 01:02:07;;;;;;;7.30;1.50;;;;;;;;;;6208795;23;20023;-73
2022/11/19 01:04:34;;;;;;;6.00;1.42;;;;;;;;;;6208971;23;20047;-73
2022/11/19 01:07:00;;;;;;;3.75;1.33;;;;;;;;;;6206890;23;20005;-73
2022/11/19 01:09:28;;;;;;;6.35;1.58;;;;;;;;;;6208630;23;20012;-73
2022/11/19 01:11:54;;;;;;;4.90;1.80;;;;;;;;;;6208838;23;20004;-73
2022/11/19 01:14:20;;;;;;;3.78;1.40;;;;;;;;;;6206577;23;20084;-73
2022/11/19 01:16:46;;;;;;;2.72;1.02;;;;;;;;;;6208552;23;20000;-73
2022/11/19 01:19:15;;;;;;;3.08;0.90;;;;;;;;;;6208037;23;20007;-72
2022/11/19 01:21:41;;;;;;;3.72;0.68;;;;;;;;;;6208453;23;20050;-73
2022/11/19 01:24:07;;;;;;;3.35;1.10;;;;;;;;;;6208523;23;20434;-73
2022/11/19 01:26:33;;;;;;;6.55;1.17;;;;;;;;;;6206352;23;20027;-73
2022/11/19 01:29:00;;;;;;;4.32;1.00;;;;;;;;;;6208106;23;20088;-75
2022/11/19 01:31:27;;;;;;;2.60;1.05;;;;;;;;;;6208593;23;20008;-74
2022/11/19 01:33:54;;;;;;;5.65;1.52;;;;;;;;;;6208226;23;20658;-72
2022/11/19 01:36:21;;;;;;;8.30;1.80;;;;;;;;;;6206577;23;20817;-73
2022/11/19 01:38:49;;;;;;;5.85;1.95;;;;;;;;;;6208262;23;20501;-73
2022/11/19 01:41:34;;;;;;;4.28;1.42;;;;;;;;;;6207743;23;20001;-73
2022/11/19 01:44:01;;;;;;;7.75;1.80;;;;;;;;;;6208391;23;20001;-73
2022/11/19 01:46:30;;;;;;;5.10;1.60;;;;;;;;;;6208410;23;20011;-73
2022/11/19 01:49:02;;;;;;;5.82;1.42;;;;;;;;;;6206847;23;20008;-73
2022/11/19 01:51:37;;;;;;;5.53;1.60;;;;;;;;;;6207983;23;20005;-73
2022/11/19 01:54:07;;;;;;;5.22;2.08;;;;;;;;;;6208321;23;20751;-73
2022/11/19 01:56:34;;;;;;;7.50;1.45;;;;;;;;;;6208678;23;20382;-73
2022/11/19 01:59:03;;;;;;;4.95;1.45;;;;;;;;;;6207977;23;20004;-73
2022/11/19 02:01:30;;;;;;;5.47;1.30;;;;;;;;;;6207731;23;20028;-73
2022/11/19 02:03:59;;;;;;;6.75;1.80;;;;;;;;;;6206322;23;20448;-73
2022/11/19 02:06:26;;;;;;;6.55;1.35;;;;;;;;;;6208237;23;20426;-73
2022/11/19 02:08:52;;;;;;;4.50;1.73;;;;;;;;;;6207809;23;20006;-73
2022/11/19 02:11:30;;;;;;;4.80;1.48;;;;;;;;;;6208232;23;20460;-74
2022/11/19 02:14:02;;;;;;;5.35;1.52;;;;;;;;;;6206333;23;20012;-73
2022/11/19 02:16:47;;;;;;;6.93;1.23;;;;;;;;;;6207727;23;20089;-73
2022/11/19 02:19:31;;;;;;;6.80;1.27;;;;;;;;;;6207664;23;20317;-73
2022/11/19 02:22:06;;;;;;;3.22;1.30;;;;;;;;;;6206139;23;20013;-74
2022/11/19 02:24:36;;;;;;;5.97;1.20;;;;;;;;;;6206370;23;20005;-73
2022/11/19 02:27:02;;;;;;;4.30;1.25;;;;;;;;;;6207414;23;20484;-73
2022/11/19 02:29:31;;;;;;;3.97;1.00;;;;;;;;;;6207034;23;19993;-73
2022/11/19 02:32:00;;;;;;;5.88;1.42;;;;;;;;;;6207552;23;20315;-72
2022/11/19 02:34:45;;;;;;;5.55;1.45;;;;;;;;;;6207729;23;20083;-72
2022/11/19 02:37:11;;;;;;;6.25;1.42;;;;;;;;;;6208146;23;20004;-73
2022/11/19 02:39:37;;;;;;;6.25;1.20;;;;;;;;;;6205564;23;20012;-73
2022/11/19 02:42:06;;;;;;;4.93;1.10;;;;;;;;;;6207604;23;20020;-73
2022/11/19 02:47:22;;;;;;;7.20;1.17;;;;;;;;;;6207848;23;20020;-73
2022/11/19 02:49:50;;;;;;;7.18;1.60;;;;;;;;;;6207342;23;20389;-73
2022/11/19 02:52:17;;;;;;;6.20;1.20;;;;;;;;;;6207785;23;20001;-73
2022/11/19 02:54:43;;;;;;;2.58;1.05;;;;;;;;;;6205670;23;20015;-73
2022/11/19 02:57:11;;;;;;;9.48;2.20;;;;;;;;;;6207719;23;20060;-73
2022/11/19 03:05:15;;;;;;;7.18;1.38;;;;;;;;;;6207364;23;20103;-73
2022/11/19 03:07:41;;;;;;;5.93;1.30;;;;;;;;;;6205822;23;20004;-73
2022/11/19 03:10:09;;;;;;;5.85;1.30;;;;;;;;;;6206975;23;20008;-72
2022/11/19 03:12:44;;;;;;;4.55;1.20;;;;;;;;;;6207449;23;20050;-73
2022/11/19 03:18:26;;;;;;;5.25;1.38;;;;;;;;;;6207619;23;20032;-73
2022/11/19 03:21:05;;;;;;;4.63;1.90;;;;;;;;;;6206943;23;20009;-73
2022/11/19 03:23:33;;;;;;;3.03;1.17;;;;;;;;;;6207009;23;20013;-73
2022/11/19 03:26:08;;;;;;;4.07;1.20;;;;;;;;;;6207155;23;20441;-73
2022/11/19 03:28:36;;;;;;;2.58;1.10;;;;;;;;;;6205588;23;20047;-73
2022/11/19 03:31:02;;;;;;;6.28;1.40;;;;;;;;;;6206979;23;20001;-72
2022/11/19 03:33:49;;;;;;;2.97;1.02;;;;;;;;;;6207705;23;20421;-72
2022/11/19 03:36:19;;;;;;;3.33;1.70;;;;;;;;;;6206581;23;20080;-73
2022/11/19 03:38:47;;;;;;;5.63;1.77;;;;;;;;;;6207369;23;20005;-73
2022/11/19 03:41:15;;;;;;;4.63;1.42;;;;;;;;;;6205921;23;20008;-73
2022/11/19 03:43:43;;;;;;;5.57;1.85;;;;;;;;;;6209643;23;20064;-73
2022/11/19 03:46:13;;;;;;;3.83;1.20;;;;;;;;;;6209468;23;20005;-73
2022/11/19 03:48:40;;;;;;;4.75;1.45;;;;;;;;;;6209445;23;20055;-73
2022/11/19 03:51:18;;;;;;;3.90;1.50;;;;;;;;;;6208480;23;20001;-73
2022/11/19 03:53:44;;;;;;;3.42;1.42;;;;;;;;;;6207169;23;20007;-73
2022/11/19 03:56:12;;;;;;;6.45;2.20;;;;;;;;;;6209522;23;20152;-73
2022/11/19 03:58:40;;;;;;;8.65;1.85;;;;;;;;;;6209576;23;20016;-73
2022/11/19 04:01:07;;;;;;;8.27;1.90;;;;;;;;;;6209215;23;20004;-73
2022/11/19 04:03:33;;;;;;;8.77;1.67;;;;;;;;;;6208918;23;20094;-73
2022/11/19 04:05:59;;;;;;;5.50;2.42;;;;;;;;;;6209340;23;20004;-73
2022/11/19 04:08:25;;;;;;;4.80;1.80;;;;;;;;;;6207113;23;20001;-73
2022/11/19 04:10:51;;;;;;;4.90;2.30;;;;;;;;;;6208977;23;20004;-73
2022/11/19 04:13:17;;;;;;;6.25;1.77;;;;;;;;;;6208976;23;20027;-73
2022/11/19 04:15:43;;;;;;;5.53;1.80;;;;;;;;;;6208770;23;20413;-73
2022/11/19 04:18:09;;;;;;;4.15;1.75;;;;;;;;;;6201893;23;20005;-73
2022/11/19 04:20:36;;;;;;;4.97;1.63;;;;;;;;;;6203423;23;20072;-72
2022/11/19 04:23:02;;;;;;;8.10;1.73;;;;;;;;;;6203207;23;20012;-72
2022/11/19 04:25:28;;;;;;;3.08;1.40;;;;;;;;;;6200664;23;20000;-73
2022/11/19 04:27:54;;;;;;;3.40;1.83;;;;;;;;;;6203278;23;20015;-73
2022/11/19 04:30:20;;;;;;;4.93;1.90;;;;;;;;;;6202708;23;20397;-73
2022/11/19 04:32:46;;;;;;;2.35;1.25;;;;;;;;;;6203061;23;20000;-72
2022/11/19 04:35:13;;;;;;;2.65;1.52;;;;;;;;;;6200436;23;20042;-72
2022/11/19 04:37:39;;;;;;;3.55;1.50;;;;;;;;;;6203544;23;20009;-72
2022/11/19 04:40:06;;;;;;;5.68;1.52;;;;;;;;;;6202139;23;20425;-72
2022/11/19 04:42:32;;;;;;;5.32;1.42;;;;;;;;;;6202829;23;20016;-73
2022/11/19 04:44:59;;;;;;;4.72;1.30;;;;;;;;;;6202306;23;20001;-73
2022/11/19 04:47:25;;;;;;;5.22;1.13;;;;;;;;;;6200583;23;20032;-73
2022/11/19 04:49:51;;;;;;;4.82;1.48;;;;;;;;;;6202427;23;20001;-72
2022/11/19 04:52:17;;;;;;;3.90;1.30;;;;;;;;;;6202234;23;20013;-73
2022/11/19 04:54:43;;;;;;;6.65;1.23;;;;;;;;;;6201376;23;20004;-72
2022/11/19 04:57:09;;;;;;;3.45;1.25;;;;;;;;;;6202994;23;20012;-72
2022/11/19 04:59:35;;;;;;;5.85;1.35;;;;;;;;;;6201980;23;20015;-72
2022/11/19 05:02:01;;;;;;;4.43;1.77;;;;;;;;;;6200595;23;20012;-73
2022/11/19 05:04:27;;;;;;;7.60;1.52;;;;;;;;;;6202762;23;20011;-72
2022/11/19 05:06:54;;;;;;;3.67;1.55;;;;;;;;;;6203016;23;20004;-73
2022/11/19 05:09:20;;;;;;;4.15;1.73;;;;;;;;;;6202243;23;20007;-72
2022/11/19 05:11:46;;;;;;;4.50;1.30;;;;;;;;;;6199919;23;20507;-72
2022/11/19 05:14:12;;;;;;;2.60;1.23;;;;;;;;;;6202466;23;20003;-72
2022/11/19 05:16:38;;;;;;;5.72;1.63;;;;;;;;;;6202081;23;20023;-72
2022/11/19 05:19:04;;;;;;;4.90;1.80;;;;;;;;;;6202199;23;20517;-72
2022/11/19 05:21:30;;;;;;;3.88;1.40;;;;;;;;;;6202449;23;20004;-72
2022/11/19 05:23:57;;;;;;;1.70;1.20;;;;;;;;;;6200664;23;20008;-72
2022/11/19 05:26:23;;;;;;;3.33;1.23;;;;;;;;;;6201978;23;20001;-72
2022/11/19 05:28:49;;;;;;;6.30;1.88;;;;;;;;;;6202341;23;20088;-72
2022/11/19 05:31:15;;;;;;;6.47;1.92;;;;;;;;;;6202344;23;20000;-72
2022/11/19 05:33:41;;;;;;;6.65;1.70;;;;;;;;;;6200848;23;20449;-72
2022/11/19 05:36:07;;;;;;;8.07;2.22;;;;;;;;;;6202133;23;20001;-72
2022/11/19 05:38:33;;;;;;;8.13;2.50;;;;;;;;;;6202108;23;20060;-74
2022/11/19 05:41:00;;;;;;;5.70;2.03;;;;;;;;;;6201619;23;20008;-74
2022/11/19 05:43:26;;;;;;;6.63;2.05;;;;;;;;;;6200973;23;20036;-77
2022/11/19 05:45:52;;;;;;;4.57;2.05;;;;;;;;;;6202137;23;20444;-72
2022/11/19 05:48:18;;;;;;;6.15;1.90;;;;;;;;;;6201564;23;20638;-74
2022/11/19 05:50:44;;;;;;;7.72;2.20;;;;;;;;;;6201562;23;20023;-73
2022/11/19 05:53:10;;;;;;;7.45;1.80;;;;;;;;;;6202411;23;20576;-74
2022/11/19 05:55:36;;;;;;;8.98;2.30;;;;;;;;;;6202285;23;20128;-73
2022/11/19 05:58:03;;;;;;;11.00;1.90;;;;;;;;;;6202508;23;20004;-74
2022/11/19 06:00:29;;;;;;;7.47;2.72;;;;;;;;;;6200084;23;20004;-73
2022/11/19 06:02:55;;;;;;;7.03;1.95;;;;;;;;;;6201676;23;20012;-74
2022/11/19 06:05:21;;;;;;;5.53;1.88;;;;;;;;;;6201746;23;20028;-76
2022/11/19 06:07:47;;;;;;;6.63;1.77;;;;;;;;;;6202376;23;20008;-78
2022/11/19 06:10:13;;;;;;;9.85;2.20;;;;;;;;;;6201455;23;19996;-80
2022/11/19 06:12:41;;;;;;;7.28;2.58;;;;;;;;;;6200179;23;20005;-74
2022/11/19 06:15:07;;;;;;;7.93;2.13;;;;;;;;;;6201798;23;20543;-74
2022/11/19 06:17:34;;;;;;;6.82;2.17;;;;;;;;;;6202296;23;20009;-73
2022/11/19 06:20:00;;;;;;;7.20;1.60;;;;;;;;;;6201559;23;20003;-77
2022/11/19 06:22:26;;;;;;;6.10;1.75;;;;;;;;;;6199570;23;20523;-73
2022/11/19 06:24:52;;;;;;;6.40;1.65;;;;;;;;;;6201514;23;20000;-73
2022/11/19 06:27:18;;;;;;;12.45;2.42;;;;;;;;;;6201194;23;20032;-74
2022/11/19 06:29:44;;;;;;;6.30;2.03;;;;;;;;;;6201858;23;20015;-78
2022/11/19 06:32:10;;;;;;;9.88;1.90;;;;;;;;;;6201914;23;20012;-73
2022/11/19 06:34:37;;;;;;;4.40;1.67;;;;;;;;;;6201211;23;20519;-74
2022/11/19 06:37:03;;;;;;;7.68;2.10;;;;;;;;;;6199973;23;20008;-74
2022/11/19 06:39:29;;;;;;;9.50;2.42;;;;;;;;;;6201858;23;20059;-74
2022/11/19 06:42:34;;;;;;;6.10;1.85;;;;;;;;;;6201690;23;20069;-76
2022/11/19 06:44:41;;;;;;;9.52;1.67;;;;;;;;;;6201677;23;20016;-76
2022/11/19 06:47:07;;;;;;;7.85;1.88;;;;;;;;;;6200063;23;20027;-75
2022/11/19 06:49:33;;;;;;;8.80;2.17;;;;;;;;;;6201742;23;20015;-74
2022/11/19 06:51:59;;;;;;;8.13;1.80;;;;;;;;;;6201848;23;20168;-74
2022/11/19 06:54:25;;;;;;;9.13;1.85;;;;;;;;;;6202029;23;20333;-74
2022/11/19 06:56:51;;;;;;;5.07;1.50;;;;;;;;;;6199208;23;20005;-76
2022/11/19 06:59:17;;;;;;;11.98;2.08;;;;;;;;;;6201718;23;20001;-77
2022/11/19 07:01:44;;;;;;;9.10;2.05;;;;;;;;;;6200055;23;20580;-83
2022/11/19 07:04:10;;;;;;;7.20;1.83;;;;;;;;;;6200719;23;20009;-75
2022/11/19 07:06:36;;;;;;;6.57;1.75;;;;;;;;;;6201401;23;20008;-75
2022/11/19 07:09:02;;;;;;;11.38;1.88;;;;;;;;;;6199072;23;20572;-77
2022/11/19 07:11:29;;;;;;;7.22;1.90;;;;;;;;;;6200691;23;20464;-75
2022/11/19 07:13:57;;;;;;;6.70;2.00;;;;;;;;;;6201310;23;20009;-78
2022/11/19 07:16:23;;;;;;;13.85;2.30;;;;;;;;;;6200214;23;20058;-74
2022/11/19 07:18:49;;;;;;;7.65;1.73;;;;;;;;;;6200099;23;20139;-73
2022/11/19 07:21:16;;;;;;;6.32;1.60;;;;;;;;;;6201407;23;20000;-74
2022/11/19 07:23:42;;;;;;;9.77;2.63;;;;;;;;;;6201566;23;20023;-81
2022/11/19 07:26:08;;;;;;;7.38;2.40;;;;;;;;;;6201209;23;20001;-84
2022/11/19 07:28:34;;;;;;;6.28;2.15;;;;;;;;;;6201661;23;20001;-73
2022/11/19 07:31:04;;;;;;;7.53;1.73;;;;;;;;;;6201485;23;20012;-77
2022/11/19 07:33:30;;;;;;;13.10;2.40;;;;;;;;;;6198970;23;20419;-74
2022/11/19 07:35:56;;;;;;;7.13;2.10;;;;;;;;;;6201336;23;20549;-74
2022/11/19 07:38:22;;;;;;;12.63;1.92;;;;;;;;;;6201455;23;20008;-73
2022/11/19 07:40:52;;;;;;;3.78;2.38;;;;;;;;;;6201276;23;20005;-75
2022/11/19 07:43:19;;;;;;;8.85;2.72;;;;;;;;;;6200037;23;20455;-74
2022/11/19 07:45:45;;;;;;;9.95;2.40;;;;;;;;;;6200888;23;20003;-74
2022/11/19 07:48:11;;;;;;;7.68;1.92;;;;;;;;;;6199189;23;20008;-74
2022/11/19 07:50:39;;;;;;;7.28;1.80;;;;;;;;;;6201203;23;20003;-74
2022/11/19 07:53:05;;;;;;;7.18;1.90;;;;;;;;;;6201247;23;20092;-75
2022/11/19 07:55:31;;;;;;;6.55;2.20;;;;;;;;;;6201348;23;20001;-75
2022/11/19 07:57:57;;;;;;;8.80;3.33;;;;;;;;;;6199738;23;20058;-74
2022/11/19 08:00:23;;;;;;;5.03;2.50;;;;;;;;;;6201565;23;20001;-73
2022/11/19 08:02:50;;;;;;;9.27;2.85;;;;;;;;;;6201486;23;20086;-76
2022/11/19 08:05:16;;;;;;;4.43;2.25;;;;;;;;;;6198980;23;20029;-75
2022/11/19 08:07:43;;;;;;;6.47;2.35;;;;;;;;;;6201312;23;20005;-77
2022/11/19 08:10:09;;;;;;;5.68;2.47;;;;;;;;;;6199866;23;20088;-74
2022/11/19 08:12:36;;;;;;;7.43;2.90;;;;;;;;;;6201117;23;20000;-74
2022/11/19 08:15:02;;;;;;;6.40;3.22;;;;;;;;;;6201035;23;20027;-75
2022/11/19 08:20:15;;;;;;;7.82;2.90;;;;;;;;;;6201246;23;20047;-73
2022/11/19 08:22:41;;;;;;;5.35;2.60;;;;;;;;;;6201395;23;20009;-77
2022/11/19 08:25:08;;;;;;;4.97;2.50;;;;;;;;;;6201195;23;20036;-74
2022/11/19 08:27:34;;;;;;;5.00;2.55;;;;;;;;;;6201079;23;20000;-78
2022/11/19 08:30:00;;;;;;;8.90;3.15;;;;;;;;;;6202567;23;20000;-75
2022/11/19 08:32:26;;;;;;;4.63;2.80;;;;;;;;;;6200456;23;20279;-75
2022/11/19 08:34:52;;;;;;;9.27;3.35;;;;;;;;;;6200550;23;20074;-75
2022/11/19 08:37:18;;;;;;;4.95;3.08;;;;;;;;;;6202804;23;20070;-75
2022/11/19 08:39:44;;;;;;;10.30;4.43;;;;;;;;;;6202954;23;20004;-74
2022/11/19 08:44:55;;;;;;;8.07;3.78;;;;;;;;;;6202881;23;20016;-74
2022/11/19 08:47:22;;;;;;;8.30;3.90;;;;;;;;;;6202150;23;20012;-74
2022/11/19 08:49:48;;;;;;;10.43;4.30;;;;;;;;;;6203303;23;20074;-74
2022/11/19 08:52:14;;;;;;;8.32;3.85;;;;;;;;;;6202014;23;20371;-74
2022/11/19 08:54:40;;;;;;;8.55;3.50;;;;;;;;;;6202993;23;20326;-75
2022/11/19 08:57:06;;;;;;;5.80;4.43;;;;;;;;;;6200675;23;20005;-74
2022/11/19 08:59:32;;;;;;;8.88;4.07;;;;;;;;;;6202666;23;20011;-74
2022/11/19 09:01:58;;;;;;;9.25;4.50;;;;;;;;;;6202631;23;20005;-77
2022/11/19 09:04:24;;;;;;;8.68;3.92;;;;;;;;;;6202727;23;20436;-75
2022/11/19 09:06:51;;;;;;;6.28;3.63;;;;;;;;;;6200033;23;20043;-78
2022/11/19 09:09:17;;;;;;;9.45;4.60;;;;;;;;;;6202963;23;20009;-75
2022/11/19 09:11:43;;;;;;;8.50;4.68;;;;;;;;;;6202156;23;20448;-74
2022/11/19 09:14:09;;;;;;;7.50;4.28;;;;;;;;;;6201552;23;20009;-74
2022/11/19 09:16:35;;;;;;;6.68;4.72;;;;;;;;;;6202546;23;19993;-77
2022/11/19 09:19:01;;;;;;;8.15;4.85;;;;;;;;;;6202355;23;20008;-74
2022/11/19 09:21:28;;;;;;;8.80;4.60;;;;;;;;;;6201993;23;20004;-74
2022/11/19 09:23:54;;;;;;;6.95;4.47;;;;;;;;;;6200866;23;20009;-75
2022/11/19 09:26:20;;;;;;;7.57;4.90;;;;;;;;;;6202399;23;20001;-73
2022/11/19 09:28:46;;;;;;;12.07;5.55;;;;;;;;;;6201912;23;20505;-75
2022/11/19 09:31:14;;;;;;;12.75;5.40;;;;;;;;;;6202179;23;20008;-73
2022/11/19 09:33:41;;;;;;;7.10;5.30;;;;;;;;;;6202024;23;20354;-76
2022/11/19 09:36:08;;;;;;;8.77;5.40;;;;;;;;;;6200210;23;19997;-74
2022/11/19 09:38:34;;;;;;;8.18;5.32;;;;;;;;;;6202934;23;20004;-74
2022/11/19 09:41:11;;;;;;;10.50;5.35;;;;;;;;;;6201285;23;20055;-74
2022/11/19 09:43:43;;;;;;;10.93;5.03;;;;;;;;;;6202292;23;20036;-75
2022/11/19 09:46:22;;;;;;;8.55;4.80;;;;;;;;;;6202773;23;20009;-74
2022/11/19 09:48:50;;;;;;;9.32;5.40;;;;;;;;;;6199010;23;20457;-75
2022/11/19 09:51:25;;;;;;;7.72;4.90;;;;;;;;;;6201309;23;20007;-74
2022/11/19 09:53:54;;;;;;;8.68;4.50;;;;;;;;;;6201620;22;20013;-73
2022/11/19 09:56:35;;;;;;;9.98;4.40;;;;;;;;;;6201473;23;20475;-74
2022/11/19 09:59:04;;;;;;;9.68;4.40;;;;;;;;;;6202157;23;20008;-74
2022/11/19 10:01:31;;;;;;;7.55;4.32;;;;;;;;;;6199911;23;20321;-74
2022/11/19 10:03:59;;;;;;;7.45;3.40;;;;;;;;;;6202119;23;20728;-74
2022/11/19 10:06:29;;;;;;;6.30;3.60;;;;;;;;;;6201990;22;20005;-74
2022/11/19 10:09:20;;;;;;;9.77;4.03;;;;;;;;;;6201657;23;20054;-74
2022/11/19 10:12:10;;;;;;;7.57;3.80;;;;;;;;;;6198616;23;20459;-77
2022/11/19 10:14:37;;;;;;;8.48;3.83;;;;;;;;;;6201748;23;20005;-74
2022/11/19 10:17:03;;;;;;;6.72;3.15;;;;;;;;;;6202149;23;20070;-74
2022/11/19 10:19:34;;;;;;;7.20;3.28;;;;;;;;;;6200171;23;20004;-74
2022/11/19 10:22:01;;;;;;;9.57;3.50;;;;;;;;;;6200872;23;20013;-74
2022/11/19 10:24:51;;;;;;;8.68;3.00;;;;;;;;;;6202114;23;20001;-74
2022/11/19 10:27:28;;;;;;;8.00;2.90;;;;;;;;;;6200449;23;20004;-75
2022/11/19 10:29:56;;;;;;;8.55;3.03;;;;;;;;;;6201636;23;20000;-76
2022/11/19 10:32:22;;;;;;;5.47;2.35;;;;;;;;;;6201316;23;20111;-75
2022/11/19 10:34:51;;;;;;;6.22;3.10;;;;;;;;;;6201448;23;20008;-73
2022/11/19 10:37:18;;;;;;;4.53;2.65;;;;;;;;;;6201401;23;20027;-74
2022/11/19 10:39:51;;;;;;;9.35;2.90;;;;;;;;;;6200322;23;20001;-74
2022/11/19 10:42:33;;;;;;;8.00;2.65;;;;;;;;;;6201237;23;20418;-74
2022/11/19 10:45:19;;;;;;;6.65;3.40;;;;;;;;;;6201595;23;19996;-73
2022/11/19 10:47:51;;;;;;;10.90;3.88;;;;;;;;;;6201493;23;20000;-74
2022/11/19 10:50:22;;;;;;;6.72;3.90;;;;;;;;;;6201265;23;20084;-77
2022/11/19 10:52:51;;;;;;;6.90;4.03;;;;;;;;;;6201015;23;20583;-74
2022/11/19 10:55:23;;;;;;;6.65;4.07;;;;;;;;;;6200493;23;20004;-73
2022/11/19 10:57:51;;;;;;;12.30;4.88;;;;;;;;;;6201316;23;20004;-75
2022/11/19 11:00:17;;;;;;;12.55;4.40;;;;;;;;;;6201573;23;20325;-74
2022/11/19 11:02:49;;;;;;;8.27;3.88;;;;;;;;;;6200965;23;20512;-74
2022/11/19 11:05:16;;;;;;;8.73;3.83;;;;;;;;;;6201483;23;20425;-74
2022/11/19 11:07:44;;;;;;;8.20;3.60;;;;;;;;;;6201495;23;20556;-74
2022/11/19 11:10:23;;;;;;;8.75;3.90;;;;;;;;;;6199147;23;20004;-76
2022/11/19 11:15:34;;;;;;;8.13;3.50;;;;;;;;;;6201007;23;20107;-74
2022/11/19 11:18:04;;;;;;;4.75;3.42;;;;;;;;;;6201449;23;20000;-75
2022/11/19 11:20:31;;;;;;;6.40;3.38;;;;;;;;;;6202099;23;20115;-74
2022/11/19 11:23:17;;;;;;;5.32;3.08;;;;;;;;;;6199663;23;20049;-74
2022/11/19 11:25:56;;;;;;;5.32;3.05;;;;;;;;;;6200455;23;20083;-73
2022/11/19 11:28:24;;;;;;;11.60;3.65;;;;;;;;;;6201326;23;20385;-74
2022/11/19 11:30:54;;;;;;;6.88;2.92;;;;;;;;;;6201803;23;20001;-75
2022/11/19 11:33:24;;;;;;;5.95;3.10;;;;;;;;;;6200110;23;20011;-74
2022/11/19 11:35:51;;;;;;;7.28;3.22;;;;;;;;;;6201466;23;20001;-74
2022/11/19 11:38:21;;;;;;;5.57;2.97;;;;;;;;;;6201530;23;20413;-73
2022/11/19 11:40:59;;;;;;;5.47;3.38;;;;;;;;;;6201732;23;20008;-74
2022/11/19 11:43:26;;;;;;;7.32;3.10;;;;;;;;;;6201518;23;20020;-73
2022/11/19 11:46:00;;;;;;;6.20;2.42;;;;;;;;;;6199573;23;20008;-74
2022/11/19 11:48:30;;;;;;;4.50;2.47;;;;;;;;;;6201444;23;20001;-77
2022/11/19 11:50:56;;;;;;;3.88;2.10;;;;;;;;;;6201097;23;19993;-76
2022/11/19 11:53:28;;;;;;;5.10;2.50;;;;;;;;;;6201342;23;20009;-73
2022/11/19 11:55:54;;;;;;;;;;;;;;;;;;6201462;23;20587;-77
2022/11/19 11:58:29;;;;;;;4.22;2.20;;;;;;;;;;6200611;23;19903;-73
2022/11/19 12:01:09;;;;;;;4.57;2.28;;;;;;;;;;6198883;22;20008;-74
2022/11/19 12:03:36;;;;;;;9.30;2.65;;;;;;;;;;6203016;23;20036;-73
2022/11/19 12:06:14;;;;;;;9.07;2.55;;;;;;;;;;6203181;23;20012;-75
2022/11/19 12:08:47;;;;;;;6.15;2.00;;;;;;;;;;6201571;23;20334;-74
2022/11/19 12:11:54;;;;;;;5.55;2.03;;;;;;;;;;6202908;23;20008;-72
2022/11/19 12:14:38;;;;;;;2.88;2.13;;;;;;;;;;6202441;23;20012;-74
2022/11/19 12:17:23;;;;;;;3.97;1.88;;;;;;;;;;6203122;23;20005;-77
2022/11/19 12:20:12;;;;;;;12.50;2.92;;;;;;;;;;6202523;23;20433;-75
2022/11/19 12:22:38;;;;;;;5.93;2.30;;;;;;;;;;6190435;23;20437;-73
2022/11/19 12:25:20;;;;;;;5.22;1.98;;;;;;;;;;6201260;23;20497;-74
2022/11/19 12:27:46;;;;;;;3.05;2.00;;;;;;;;;;6201319;23;20339;-77
2022/11/19 12:30:19;;;;;;;4.47;1.90;;;;;;;;;;6202796;23;20008;-80
2022/11/19 12:32:45;;;;;;;4.40;1.77;;;;;;;;;;6202973;23;20063;-75
2022/11/19 12:35:11;;;;;;;2.95;1.92;;;;;;;;;;6201274;23;20602;-81
2022/11/19 12:37:47;;;;;;;6.20;2.40;;;;;;;;;;6206400;23;20513;-81
2022/11/19 12:40:33;;;;;;;4.60;2.08;;;;;;;;;;6203230;23;20005;-77
2022/11/19 12:43:15;;;;;;;6.40;2.70;;;;;;;;;;6186919;23;20340;-75
2022/11/19 12:45:50;;;;;;;10.95;2.85;;;;;;;;;;6203102;23;20018;-77
2022/11/19 12:48:23;;;;;;;8.18;2.03;;;;;;;;;;6202528;23;20162;-77
2022/11/19 12:50:49;;;;;;;5.45;2.00;;;;;;;;;;6198995;23;20008;-78
2022/11/19 12:53:30;;;;;;;4.47;1.40;;;;;;;;;;6201877;23;20000;-79
2022/11/19 12:56:15;;;;;;;3.75;1.60;;;;;;;;;;6200907;23;20004;-80
2022/11/19 12:58:47;;;;;;;4.70;2.03;;;;;;;;;;6202930;23;20001;-80
2022/11/19 13:01:19;;;;;;;5.57;1.92;;;;;;;;;;6200438;23;20590;-80
2022/11/19 13:04:01;;;;;;;9.15;1.98;;;;;;;;;;6202478;23;20016;-75
2022/11/19 13:06:31;;;;;;;2.42;1.38;;;;;;;;;;6202874;23;20082;-80
2022/11/19 13:08:59;;;;;;;4.30;1.48;;;;;;;;;;6201206;23;20058;-77
2022/11/19 13:11:35;;;;;;;6.07;2.13;;;;;;;;;;6198652;23;20865;-79
2022/11/19 13:14:03;;;;;;;6.10;1.75;;;;;;;;;;6202282;23;20051;-78
2022/11/19 13:16:30;;;;;;;5.38;1.50;;;;;;;;;;6202484;23;20015;-74
2022/11/19 13:19:19;;;;;;;5.28;1.73;;;;;;;;;;6202287;23;20004;-74
2022/11/19 13:21:57;;;;;;;5.70;1.45;;;;;;;;;;6202647;23;20011;-74
2022/11/19 13:24:23;;;;;;;5.13;1.75;;;;;;;;;;6200841;23;20112;-73
2022/11/19 13:26:50;;;;;;;5.22;1.10;;;;;;;;;;6202870;23;20005;-76
2022/11/19 13:29:22;;;;;;;3.47;1.30;;;;;;;;;;6201164;23;20032;-74
2022/11/19 13:31:51;;;;;;;4.85;1.92;;;;;;;;;;6202829;23;20007;-79
2022/11/19 13:34:17;;;;;;;5.53;1.60;;;;;;;;;;6200910;23;20013;-79
2022/11/19 13:36:46;;;;;;;5.65;1.52;;;;;;;;;;6202695;23;20058;-77
2022/11/19 13:39:15;;;;;;;4.63;1.20;;;;;;;;;;6201216;23;20005;-77
2022/11/19 13:44:46;;;;;;;7.22;1.75;;;;;;;;;;6202783;23;20345;-80
2022/11/19 13:47:16;;;;;;;5.47;1.35;;;;;;;;;;6199753;23;20017;-77
2022/11/19 13:49:44;;;;;;;5.53;1.70;;;;;;;;;;6202425;23;20004;-79
2022/11/19 13:52:30;;;;;;;3.30;1.13;;;;;;;;;;6200667;23;20318;-80
2022/11/19 13:55:15;;;;;;;6.90;1.50;;;;;;;;;;6184566;23;20464;-78
2022/11/19 13:57:43;;;;;;;8.98;1.63;;;;;;;;;;6202534;23;20024;-80
2022/11/19 14:00:26;;;;;;;5.32;1.65;;;;;;;;;;6202521;23;20007;-78
2022/11/19 14:03:07;;;;;;;6.75;1.48;;;;;;;;;;6200369;23;20044;-78
2022/11/19 14:05:41;;;;;;;5.95;1.08;;;;;;;;;;6201024;23;19997;-78
2022/11/19 14:08:17;;;;;;;4.15;1.05;;;;;;;;;;6200401;23;20418;-78
2022/11/19 14:11:02;;;;;;;7.13;1.38;;;;;;;;;;6202332;23;20004;-76
2022/11/19 14:13:32;;;;;;;4.63;1.25;;;;;;;;;;6201164;23;20031;-78
2022/11/19 14:27:21;;;;;;;4.75;1.40;;;;;;;;;;6201260;23;20072;-73
2022/11/19 14:29:47;;;;;;;7.57;1.45;;;;;;;;;;6199807;23;20005;-74
2022/11/19 14:32:13;;;;;;;4.50;1.00;;;;;;;;;;6201051;23;20477;-75
2022/11/19 14:34:48;;;;;;;5.45;1.00;;;;;;;;;;6201078;23;20017;-79
2022/11/19 14:37:20;;;;;;;7.55;1.70;;;;;;;;;;6199782;23;20471;-76
2022/11/19 14:39:51;;;;;;;5.18;1.58;;;;;;;;;;6201655;23;20011;-75
2022/11/19 14:42:21;;;;;;;6.55;1.33;;;;;;;;;;6201244;23;20005;-75
2022/11/19 14:45:02;;;;;;;5.32;1.35;;;;;;;;;;6201506;23;20413;-74
2022/11/19 14:47:42;;;;;;;11.57;1.50;;;;;;;;;;6201003;23;20449;-73
2022/11/19 14:50:09;;;;;;;4.85;1.60;;;;;;;;;;6201980;23;20536;-77
2022/11/19 14:52:52;;;;;;;9.40;1.80;;;;;;;;;;6198745;23;19996;-74
2022/11/19 14:55:22;;;;;;;7.20;1.42;;;;;;;;;;6201252;23;20007;-75
2022/11/19 14:57:58;;;;;;;6.15;1.30;;;;;;;;;;6201064;23;20011;-73
2022/11/19 15:00:24;;;;;;;8.27;1.85;;;;;;;;;;6200505;23;19997;-79
2022/11/19 15:02:51;;;;;;;5.22;1.48;;;;;;;;;;6201101;23;20066;-73
2022/11/19 15:05:22;;;;;;;4.78;1.20;;;;;;;;;;6194602;23;20374;-78
2022/11/19 15:07:52;;;;;;;4.97;1.27;;;;;;;;;;6200158;23;20015;-74
2022/11/19 15:10:29;;;;;;;8.32;1.20;;;;;;;;;;6201294;23;20001;-74
2022/11/19 15:13:17;;;;;;;5.20;1.27;;;;;;;;;;6206647;23;20001;-73
2022/11/19 15:15:45;;;;;;;4.53;1.00;;;;;;;;;;6197533;23;20001;-75
2022/11/19 15:18:29;;;;;;;8.23;1.83;;;;;;;;;;6200942;23;20011;-74
2022/11/19 15:21:01;;;;;;;4.60;1.25;;;;;;;;;;6200629;23;20312;-73
2022/11/19 15:23:30;;;;;;;7.05;1.50;;;;;;;;;;6199751;23;20088;-74
2022/11/19 15:26:02;;;;;;;7.90;2.00;;;;;;;;;;6199459;23;20001;-74
2022/11/19 15:28:47;;;;;;;8.25;1.60;;;;;;;;;;6201365;23;20414;-75
2022/11/19 15:31:23;;;;;;;8.40;1.58;;;;;;;;;;6198123;23;20074;-76